createdAt,value
2022-10-11T00:01:50.437Z,21.42
2022-10-11T00:04:17.531Z,19.88
2022-10-11T00:06:44.667Z,19.80
2022-10-11T00:09:11.803Z,20.90
2022-10-11T00:11:39.416Z,20.05
2022-10-11T00:14:06.892Z,21.70
2022-10-11T00:16:34.316Z,19.98
2022-10-11T00:19:01.432Z,19.98
2022-10-11T00:21:28.462Z,20.30
2022-10-11T00:23:55.558Z,21.00
2022-10-11T00:26:22.771Z,22.58
2022-10-11T00:28:52.056Z,21.58
2022-10-11T00:31:19.398Z,21.90
2022-10-11T00:33:46.534Z,20.60
2022-10-11T00:36:15.826Z,22.15
2022-10-11T00:38:44.202Z,25.40
2022-10-11T00:41:11.804Z,24.48
2022-10-11T00:43:39.626Z,23.70
2022-10-11T00:46:26.264Z,23.52
2022-10-11T00:48:59.942Z,22.23
2022-10-11T00:51:51.146Z,16.33
2022-10-11T00:54:21.960Z,23.23
2022-10-11T00:56:54.187Z,22.15
2022-10-11T00:59:26.613Z,20.95
2022-10-11T01:01:53.820Z,21.17
2022-10-11T01:04:21.105Z,21.27
2022-10-11T01:06:49.526Z,19.30
2022-10-11T01:09:17.789Z,20.40
2022-10-11T01:11:47.000Z,22.77
2022-10-11T01:14:21.678Z,23.02
2022-10-11T01:17:05.270Z,23.27
2022-10-11T01:19:33.405Z,23.40
2022-10-11T01:22:20.412Z,21.20
2022-10-11T01:25:02.369Z,21.95
2022-10-11T01:27:34.560Z,22.38
2022-10-11T01:30:21.384Z,22.70
2022-10-11T01:33:12.124Z,23.13
2022-10-11T01:35:46.731Z,24.13
2022-10-11T01:40:51.011Z,25.00
2022-10-11T01:43:19.382Z,26.17
2022-10-11T01:45:51.759Z,28.45
2022-10-11T01:48:19.465Z,29.02
2022-10-11T01:50:52.333Z,30.92
2022-10-11T01:53:38.374Z,30.33
2022-10-11T01:56:34.098Z,25.05
2022-10-11T01:59:21.182Z,26.33
2022-10-11T02:02:03.144Z,26.45
2022-10-11T02:04:40.989Z,24.30
2022-10-11T02:07:31.274Z,23.65
2022-10-11T02:10:12.145Z,21.77
2022-10-11T02:12:47.970Z,20.90
2022-10-11T02:15:17.313Z,20.92
2022-10-11T02:17:49.355Z,20.02
2022-10-11T02:20:21.905Z,20.25
2022-10-11T02:22:53.131Z,19.90
2022-10-11T02:25:25.107Z,19.52
2022-10-11T02:27:56.889Z,19.85
2022-10-11T02:30:24.247Z,20.30
2022-10-11T02:32:53.950Z,20.13
2022-10-11T02:35:26.916Z,19.63
2022-10-11T02:38:03.209Z,20.13
2022-10-11T02:40:35.405Z,19.95
2022-10-11T02:43:06.608Z,19.67
2022-10-11T02:45:44.961Z,20.13
2022-10-11T02:48:12.768Z,21.17
2022-10-11T02:50:40.606Z,21.38
2022-10-11T02:53:08.775Z,20.02
2022-10-11T02:55:36.135Z,19.10
2022-10-11T02:58:03.458Z,21.95
2022-10-11T03:00:30.887Z,21.38
2022-10-11T03:02:58.010Z,22.73
2022-10-11T03:05:25.155Z,21.33
2022-10-11T03:07:52.188Z,23.55
2022-10-11T03:10:19.245Z,24.60
2022-10-11T03:12:46.422Z,24.00
2022-10-11T03:15:13.497Z,23.98
2022-10-11T03:17:40.560Z,23.70
2022-10-11T03:20:08.241Z,29.52
2022-10-11T03:22:35.617Z,23.95
2022-10-11T03:25:04.676Z,24.63
2022-10-11T03:27:33.519Z,22.20
2022-10-11T03:30:01.122Z,20.42
2022-10-11T03:32:29.232Z,20.55
2022-10-11T03:34:56.739Z,20.85
2022-10-11T03:37:25.458Z,20.90
2022-10-11T03:39:52.560Z,22.70
2022-10-11T03:42:19.854Z,21.45
2022-10-11T03:44:49.569Z,20.70
2022-10-11T03:47:16.923Z,19.75
2022-10-11T03:49:44.089Z,21.15
2022-10-11T03:52:11.567Z,19.73
2022-10-11T03:54:38.605Z,21.58
2022-10-11T03:57:05.763Z,21.60
2022-10-11T03:59:32.978Z,20.33
2022-10-11T04:02:00.178Z,21.40
2022-10-11T04:04:27.563Z,23.08
2022-10-11T04:06:54.718Z,22.92
2022-10-11T04:09:21.944Z,19.80
2022-10-11T04:11:49.001Z,21.35
2022-10-11T04:14:16.214Z,20.55
2022-10-11T04:16:43.356Z,21.15
2022-10-11T04:19:10.395Z,19.65
2022-10-11T04:21:37.548Z,21.70
2022-10-11T04:24:04.993Z,22.15
2022-10-11T04:26:32.162Z,22.38
2022-10-11T04:28:59.317Z,22.15
2022-10-11T04:31:26.526Z,23.05
2022-10-11T04:33:53.644Z,23.42
2022-10-11T04:36:20.721Z,22.80
2022-10-11T04:38:48.262Z,21.85
2022-10-11T04:41:16.508Z,22.33
2022-10-11T04:43:43.562Z,22.67
2022-10-11T04:46:11.618Z,23.08
2022-10-11T04:48:39.060Z,23.25
2022-10-11T04:51:06.473Z,22.23
2022-10-11T04:53:33.580Z,21.27
2022-10-11T04:56:03.843Z,22.40
2022-10-11T04:58:32.577Z,22.30
2022-10-11T05:00:59.722Z,20.20
2022-10-11T05:03:27.250Z,20.00
2022-10-11T05:05:54.530Z,20.30
2022-10-11T05:08:23.586Z,20.08
2022-10-11T05:11:10.262Z,20.33
2022-10-11T05:13:37.790Z,20.77
2022-10-11T05:16:09.747Z,22.20
2022-10-11T05:18:38.171Z,20.65
2022-10-11T05:21:10.195Z,20.27
2022-10-11T05:23:37.849Z,20.38
2022-10-11T05:26:05.394Z,21.02
2022-10-11T05:28:33.061Z,19.80
2022-10-11T05:31:00.250Z,20.83
2022-10-11T05:33:27.461Z,20.73
2022-10-11T05:35:54.845Z,21.90
2022-10-11T05:38:23.020Z,21.45
2022-10-11T05:40:50.525Z,20.85
2022-10-11T05:43:17.896Z,20.75
2022-10-11T05:45:46.593Z,20.75
2022-10-11T05:48:13.704Z,20.30
2022-10-11T05:50:41.125Z,21.10
2022-10-11T05:53:08.444Z,22.75
2022-10-11T05:55:40.632Z,21.15
2022-10-11T05:58:10.335Z,18.63
2022-10-11T06:00:38.116Z,18.13
2022-10-11T06:03:06.811Z,17.92
2022-10-11T06:05:36.043Z,17.17
2022-10-11T06:08:06.196Z,16.27
2022-10-11T06:10:33.815Z,16.52
2022-10-11T06:13:01.008Z,17.80
2022-10-11T06:15:28.615Z,16.15
2022-10-11T06:17:56.090Z,17.55
2022-10-11T06:20:23.229Z,18.13
2022-10-11T06:22:50.475Z,18.00
2022-10-11T06:25:17.767Z,19.60
2022-10-11T06:27:45.167Z,17.08
2022-10-11T06:30:12.618Z,15.38
2022-10-11T06:32:39.668Z,15.57
2022-10-11T06:35:07.632Z,14.32
2022-10-11T06:37:34.813Z,14.45
2022-10-11T06:40:02.226Z,14.23
2022-10-11T06:42:29.314Z,14.50
2022-10-11T06:44:56.289Z,14.43
2022-10-11T06:47:23.730Z,15.45
2022-10-11T06:49:50.792Z,15.30
2022-10-11T06:52:17.996Z,13.93
2022-10-11T06:54:45.692Z,15.25
2022-10-11T06:57:12.895Z,14.63
2022-10-11T06:59:39.941Z,14.85
2022-10-11T07:02:07.396Z,13.90
2022-10-11T07:04:34.596Z,14.25
2022-10-11T07:07:01.622Z,14.75
2022-10-11T07:09:28.778Z,14.00
2022-10-11T07:11:55.852Z,13.90
2022-10-11T07:14:23.022Z,13.05
2022-10-11T07:16:50.120Z,12.15
2022-10-11T07:19:17.622Z,12.82
2022-10-11T07:21:44.798Z,10.82
2022-10-11T07:24:12.000Z,11.40
2022-10-11T07:26:39.461Z,10.60
2022-10-11T07:29:08.911Z,10.93
2022-10-11T07:31:40.448Z,9.65
2022-10-11T07:34:10.372Z,10.40
2022-10-11T07:36:38.901Z,10.45
2022-10-11T07:39:39.623Z,10.55
2022-10-11T07:42:08.277Z,9.52
2022-10-11T07:44:37.253Z,10.43
2022-10-11T07:47:08.934Z,10.75
2022-10-11T07:49:38.171Z,10.73
2022-10-11T07:52:05.415Z,11.35
2022-10-11T07:54:33.653Z,10.85
2022-10-11T07:57:00.792Z,10.50
2022-10-11T07:59:28.020Z,10.85
2022-10-11T08:01:55.304Z,11.48
2022-10-11T08:04:22.588Z,11.45
2022-10-11T08:06:52.619Z,10.85
2022-10-11T08:09:20.581Z,12.73
2022-10-11T08:11:47.727Z,11.27
2022-10-11T08:14:15.589Z,11.70
2022-10-11T08:16:43.247Z,11.27
2022-10-11T08:19:11.355Z,12.07
2022-10-11T08:21:39.211Z,11.50
2022-10-11T08:24:08.249Z,11.77
2022-10-11T08:26:35.477Z,11.20
2022-10-11T08:29:04.008Z,10.77
2022-10-11T08:31:33.479Z,10.65
2022-10-11T08:34:01.690Z,10.02
2022-10-11T08:36:28.874Z,10.35
2022-10-11T08:38:56.378Z,10.43
2022-10-11T08:41:47.735Z,9.40
2022-10-11T08:47:41.245Z,9.85
2022-10-11T08:50:17.741Z,9.88
2022-10-11T08:52:48.744Z,9.43
2022-10-11T08:55:32.797Z,9.70
2022-10-11T08:58:00.024Z,10.20
2022-10-11T09:00:31.636Z,9.70
2022-10-11T09:03:22.010Z,9.90
2022-10-11T09:06:28.929Z,10.30
2022-10-11T09:09:22.970Z,9.70
2022-10-11T09:12:10.319Z,10.03
2022-10-11T09:15:14.285Z,9.30
2022-10-11T09:18:09.466Z,10.20
2022-10-11T09:20:45.290Z,9.77
2022-10-11T09:23:32.180Z,10.30
2022-10-11T09:26:23.161Z,10.20
2022-10-11T09:29:03.746Z,10.15
2022-10-11T09:31:32.172Z,10.52
2022-10-11T09:34:10.326Z,9.75
2022-10-11T09:36:40.775Z,9.98
2022-10-11T09:39:28.883Z,10.38
2022-10-11T09:42:13.335Z,8.73
2022-10-11T09:47:18.087Z,8.90
2022-10-11T09:49:54.973Z,7.78
2022-10-11T09:52:24.745Z,7.68
2022-10-11T09:54:58.016Z,8.63
2022-10-11T09:57:30.981Z,8.10
2022-10-11T10:00:20.880Z,8.18
2022-10-11T10:02:49.388Z,8.13
2022-10-11T10:05:20.623Z,8.50
2022-10-11T10:08:11.712Z,8.57
2022-10-11T10:10:57.151Z,8.43
2022-10-11T10:13:55.579Z,8.90
2022-10-11T10:16:33.785Z,8.57
2022-10-11T10:19:08.996Z,8.10
2022-10-11T10:21:46.124Z,8.70
2022-10-11T10:24:33.159Z,8.60
2022-10-11T10:27:07.715Z,8.63
2022-10-11T10:29:36.026Z,9.43
2022-10-11T10:32:15.289Z,8.57
2022-10-11T10:34:55.768Z,10.13
2022-10-11T10:37:32.122Z,8.75
2022-10-11T10:40:09.861Z,8.40
2022-10-11T10:42:37.702Z,8.07
2022-10-11T10:45:12.187Z,8.15
2022-10-11T10:47:48.698Z,7.93
2022-10-11T10:50:23.577Z,6.00
2022-10-11T10:53:05.576Z,6.50
2022-10-11T10:55:52.844Z,5.88
2022-10-11T10:58:20.146Z,6.22
2022-10-11T11:00:50.321Z,6.13
2022-10-11T11:03:26.559Z,5.82
2022-10-11T11:06:06.757Z,5.70
2022-10-11T11:08:55.006Z,5.45
2022-10-11T11:11:38.538Z,5.60
2022-10-11T11:14:26.606Z,5.68
2022-10-11T11:17:33.417Z,6.22
2022-10-11T11:20:06.878Z,6.65
2022-10-11T11:22:58.358Z,5.70
2022-10-11T11:25:49.649Z,6.10
2022-10-11T11:28:37.654Z,6.05
2022-10-11T11:31:20.026Z,5.78
2022-10-11T11:33:54.303Z,5.97
2022-10-11T11:38:59.609Z,6.82
2022-10-11T11:41:33.619Z,6.33
2022-10-11T11:44:26.418Z,6.47
2022-10-11T11:47:01.509Z,6.35
2022-10-11T11:52:00.190Z,5.63
2022-10-11T11:54:48.321Z,6.07
2022-10-11T11:57:29.921Z,6.70
2022-10-11T12:00:01.393Z,6.68
2022-10-11T12:02:29.487Z,6.68
2022-10-11T12:04:57.716Z,6.93
2022-10-11T12:07:28.113Z,6.78
2022-10-11T12:10:33.182Z,6.03
2022-10-11T12:13:08.562Z,6.75
2022-10-11T12:15:37.292Z,6.47
2022-10-11T12:18:16.190Z,6.63
2022-10-11T12:20:44.667Z,6.30
2022-10-11T12:23:31.204Z,5.85
2022-10-11T12:26:31.000Z,6.85
2022-10-11T12:29:19.077Z,6.68
2022-10-11T12:31:49.254Z,6.38
2022-10-11T12:34:34.612Z,7.07
2022-10-11T12:37:22.482Z,6.80
2022-10-11T12:39:52.755Z,6.32
2022-10-11T12:42:36.070Z,6.60
2022-10-11T12:45:18.976Z,6.80
2022-10-11T12:48:05.569Z,6.50
2022-10-11T12:50:43.946Z,6.95
2022-10-11T12:54:02.510Z,6.65
2022-10-11T12:56:48.825Z,6.40
2022-10-11T12:59:19.705Z,6.10
2022-10-11T13:01:52.669Z,6.50
2022-10-11T13:04:24.533Z,6.30
2022-10-11T13:06:56.638Z,6.25
2022-10-11T13:09:30.097Z,6.68
2022-10-11T13:12:06.939Z,5.57
2022-10-11T13:14:38.558Z,5.95
2022-10-11T13:17:16.576Z,6.28
2022-10-11T13:19:43.906Z,6.30
2022-10-11T13:22:21.534Z,5.60
2022-10-11T13:24:48.937Z,6.22
2022-10-11T13:27:23.472Z,5.80
2022-10-11T13:29:54.270Z,5.85
2022-10-11T13:32:25.063Z,6.13
2022-10-11T13:34:57.032Z,6.03
2022-10-11T13:37:27.403Z,6.78
2022-10-11T13:39:56.575Z,6.10
2022-10-11T13:42:31.049Z,6.80
2022-10-11T13:44:59.782Z,6.30
2022-10-11T13:47:30.401Z,6.78
2022-10-11T13:50:09.237Z,6.85
2022-10-11T13:52:36.900Z,8.02
2022-10-11T13:55:03.933Z,6.63
2022-10-11T13:57:39.267Z,5.82
2022-10-11T14:00:18.860Z,5.90
2022-10-11T14:02:50.994Z,5.93
2022-10-11T14:05:29.920Z,5.97
2022-10-11T14:08:00.769Z,5.75
2022-10-11T14:10:28.847Z,6.05
2022-10-11T14:13:03.613Z,5.63
2022-10-11T14:15:34.572Z,6.25
2022-10-11T14:18:22.975Z,6.00
2022-10-11T14:20:50.115Z,5.50
2022-10-11T14:23:17.137Z,6.43
2022-10-11T14:25:44.446Z,5.63
2022-10-11T14:28:13.495Z,5.93
2022-10-11T14:30:42.714Z,5.68
2022-10-11T14:33:11.384Z,5.65
2022-10-11T14:35:41.655Z,5.32
2022-10-11T14:38:12.016Z,5.00
2022-10-11T14:40:40.658Z,5.20
2022-10-11T14:43:07.768Z,4.65
2022-10-11T14:45:34.873Z,5.00
2022-10-11T14:48:02.550Z,4.63
2022-10-11T14:50:36.701Z,5.97
2022-10-11T14:53:05.828Z,5.68
2022-10-11T14:55:33.453Z,5.43
2022-10-11T14:58:00.717Z,5.55
2022-10-11T15:00:29.095Z,5.88
2022-10-11T15:02:57.462Z,5.28
2022-10-11T15:05:29.904Z,5.45
2022-10-11T15:08:01.518Z,5.15
2022-10-11T15:10:36.490Z,5.22
2022-10-11T15:13:05.274Z,5.35
2022-10-11T15:15:35.557Z,4.97
2022-10-11T15:18:04.735Z,5.13
2022-10-11T15:20:35.861Z,5.68
2022-10-11T15:23:03.538Z,5.18
2022-10-11T15:25:31.208Z,5.35
2022-10-11T15:27:58.406Z,5.28
2022-10-11T15:30:29.408Z,5.07
2022-10-11T15:32:56.903Z,6.15
2022-10-11T15:35:26.010Z,5.10
2022-10-11T15:37:55.806Z,6.07
2022-10-11T15:40:25.659Z,6.13
2022-10-11T15:42:54.783Z,5.32
2022-10-11T15:45:23.901Z,5.80
2022-10-11T15:47:51.751Z,5.97
2022-10-11T15:50:34.354Z,4.90
2022-10-11T15:53:02.722Z,5.25
2022-10-11T15:55:30.871Z,5.40
2022-10-11T15:57:58.658Z,5.47
2022-10-11T16:00:26.585Z,4.70
2022-10-11T16:02:54.549Z,5.75
2022-10-11T16:05:25.033Z,5.35
2022-10-11T16:07:57.187Z,5.05
2022-10-11T16:10:25.960Z,5.32
2022-10-11T16:12:53.744Z,6.05
2022-10-11T16:15:22.494Z,5.88
2022-10-11T16:17:50.135Z,6.60
2022-10-11T16:20:22.055Z,6.03
2022-10-11T16:22:52.910Z,6.47
2022-10-11T16:25:26.119Z,5.80
2022-10-11T16:27:54.301Z,6.55
2022-10-11T16:30:21.483Z,7.38
2022-10-11T16:32:48.683Z,6.55
2022-10-11T16:35:17.219Z,45.65
2022-10-11T16:37:44.564Z,37.33
2022-10-11T16:40:15.951Z,27.35
2022-10-11T16:42:47.090Z,20.67
2022-10-11T16:45:20.162Z,16.17
2022-10-11T16:47:53.975Z,10.50
2022-10-11T16:50:23.322Z,8.93
2022-10-11T16:52:50.615Z,7.00
2022-10-11T16:55:17.810Z,7.05
2022-10-11T16:57:45.470Z,6.70
2022-10-11T17:00:13.475Z,7.88
2022-10-11T17:02:40.571Z,8.02
2022-10-11T17:05:08.191Z,9.00
2022-10-11T17:07:35.838Z,8.63
2022-10-11T17:10:03.087Z,9.77
2022-10-11T17:12:32.026Z,10.48
2022-10-11T17:14:59.131Z,9.88
2022-10-11T17:17:27.097Z,14.73
2022-10-11T17:19:54.262Z,18.85
2022-10-11T17:22:21.522Z,17.02
2022-10-11T17:24:48.717Z,15.10
2022-10-11T17:27:15.942Z,10.40
2022-10-11T17:29:43.031Z,12.80
2022-10-11T17:32:10.123Z,11.25
2022-10-11T17:34:37.346Z,9.88
2022-10-11T17:37:04.504Z,9.75
2022-10-11T17:39:31.678Z,9.65
2022-10-11T17:42:05.100Z,8.25
2022-10-11T17:44:32.361Z,7.93
2022-10-11T17:47:00.389Z,6.47
2022-10-11T17:49:27.568Z,7.20
2022-10-11T17:51:56.642Z,7.28
2022-10-11T17:54:24.176Z,7.05
2022-10-11T17:56:51.394Z,6.65
2022-10-11T17:59:21.846Z,7.13
2022-10-11T18:01:51.040Z,7.40
2022-10-11T18:04:22.565Z,9.40
2022-10-11T18:06:50.012Z,9.80
2022-10-11T18:09:18.610Z,13.05
2022-10-11T18:11:48.044Z,15.90
2022-10-11T18:14:16.023Z,15.00
2022-10-11T18:16:44.173Z,15.00
2022-10-11T18:19:13.186Z,14.00
2022-10-11T18:21:41.407Z,12.40
2022-10-11T18:24:15.207Z,12.93
2022-10-11T18:26:44.469Z,13.60
2022-10-11T18:29:12.857Z,12.27
2022-10-11T18:31:41.513Z,13.65
2022-10-11T18:34:10.914Z,11.45
2022-10-11T18:36:39.130Z,11.70
2022-10-11T18:39:08.905Z,11.20
2022-10-11T18:41:38.031Z,11.73
2022-10-11T18:44:07.492Z,11.60
2022-10-11T18:46:35.711Z,11.75
2022-10-11T18:49:03.828Z,13.15
2022-10-11T18:51:35.040Z,11.90
2022-10-11T18:54:03.195Z,11.25
2022-10-11T18:56:32.529Z,10.32
2022-10-11T18:58:59.719Z,10.57
2022-10-11T19:01:29.904Z,10.15
2022-10-11T19:03:59.253Z,10.50
2022-10-11T19:06:29.238Z,14.23
2022-10-11T19:09:02.801Z,15.52
2022-10-11T19:11:33.185Z,26.05
2022-10-11T19:14:03.070Z,20.80
2022-10-11T19:16:34.562Z,16.65
2022-10-11T19:19:02.348Z,15.57
2022-10-11T19:21:30.900Z,15.82
2022-10-11T19:23:58.359Z,17.30
2022-10-11T19:26:30.997Z,16.35
2022-10-11T19:29:02.881Z,20.95
2022-10-11T19:31:33.455Z,30.20
2022-10-11T19:34:01.533Z,28.55
2022-10-11T19:36:34.004Z,28.30
2022-10-11T19:39:04.864Z,28.83
2022-10-11T19:41:33.433Z,25.65
2022-10-11T19:44:00.792Z,23.92
2022-10-11T19:49:17.847Z,17.83
2022-10-11T19:51:45.157Z,15.23
2022-10-11T19:54:15.020Z,14.45
2022-10-11T19:56:43.346Z,14.40
2022-10-11T19:59:12.568Z,16.88
2022-10-11T20:01:40.958Z,19.00
2022-10-11T20:04:22.633Z,18.60
2022-10-11T20:06:58.354Z,18.08
2022-10-11T20:09:30.305Z,17.85
2022-10-11T20:11:58.422Z,16.85
2022-10-11T20:14:25.874Z,15.13
2022-10-11T20:16:53.516Z,17.15
2022-10-11T20:19:29.317Z,14.82
2022-10-11T20:21:58.131Z,15.02
2022-10-11T20:24:28.908Z,15.15
2022-10-11T20:27:01.007Z,15.68
2022-10-11T20:29:29.161Z,12.50
2022-10-11T20:31:59.113Z,13.13
2022-10-11T20:34:27.918Z,11.82
2022-10-11T20:36:55.743Z,11.10
2022-10-11T20:39:23.775Z,10.18
2022-10-11T20:41:53.644Z,10.45
2022-10-11T20:44:23.319Z,10.15
2022-10-11T20:46:52.592Z,10.20
2022-10-11T20:49:20.929Z,9.98
2022-10-11T20:51:48.387Z,9.18
2022-10-11T20:54:16.134Z,9.65
2022-10-11T20:56:44.044Z,9.90
2022-10-11T20:59:12.853Z,9.45
2022-10-11T21:01:41.971Z,9.65
2022-10-11T21:04:15.666Z,9.90
2022-10-11T21:06:42.709Z,9.75
2022-10-11T21:09:12.610Z,9.95
2022-10-11T21:11:42.627Z,10.85
2022-10-11T21:14:15.986Z,10.82
2022-10-11T21:16:43.663Z,10.50
2022-10-11T21:19:15.309Z,10.40
2022-10-11T21:21:42.939Z,10.32
2022-10-11T21:24:10.230Z,10.45
2022-10-11T21:26:37.327Z,10.00
2022-10-11T21:29:04.819Z,9.55
2022-10-11T21:31:34.521Z,10.25
2022-10-11T21:34:05.919Z,10.93
2022-10-11T21:36:34.489Z,10.13
2022-10-11T21:39:01.541Z,10.38
2022-10-11T21:41:30.438Z,9.88
2022-10-11T21:44:05.022Z,10.05
2022-10-11T21:47:04.993Z,9.60
2022-10-11T21:49:25.043Z,9.15
2022-10-11T21:51:52.757Z,10.15
2022-10-11T21:54:20.360Z,11.30
2022-10-11T21:56:47.479Z,10.63
2022-10-11T21:59:14.908Z,10.73
2022-10-11T22:01:43.278Z,11.60
2022-10-11T22:04:11.735Z,10.05
2022-10-11T22:06:39.515Z,9.27
2022-10-11T22:09:07.280Z,8.60
2022-10-11T22:11:34.808Z,9.48
2022-10-11T22:14:01.852Z,9.85
2022-10-11T22:16:29.174Z,9.65
2022-10-11T22:18:56.380Z,10.13
2022-10-11T22:21:24.256Z,9.68
2022-10-11T22:23:53.988Z,8.50
2022-10-11T22:26:23.637Z,8.57
2022-10-11T22:28:51.431Z,9.07
2022-10-11T22:31:20.356Z,9.20
2022-10-11T22:33:51.510Z,8.57
2022-10-11T22:36:20.171Z,9.40
2022-10-11T22:38:47.564Z,9.15
2022-10-11T22:41:14.658Z,8.77
2022-10-11T22:43:42.067Z,9.38
2022-10-11T22:46:09.529Z,9.27
2022-10-11T22:48:36.777Z,9.32
2022-10-11T22:51:04.012Z,9.80
2022-10-11T22:53:31.314Z,11.40
2022-10-11T22:55:58.557Z,10.90
2022-10-11T22:58:25.802Z,10.20
2022-10-11T23:00:53.003Z,10.55
2022-10-11T23:03:20.402Z,11.32
2022-10-11T23:05:56.043Z,11.68
2022-10-11T23:08:23.307Z,12.35
2022-10-11T23:10:50.606Z,11.70
2022-10-11T23:13:17.806Z,12.82
2022-10-11T23:15:44.909Z,11.55
2022-10-11T23:18:12.640Z,13.05
2022-10-11T23:20:40.107Z,12.57
2022-10-11T23:23:07.578Z,11.85
2022-10-11T23:25:34.878Z,12.40
2022-10-11T23:28:02.351Z,12.77
2022-10-11T23:30:30.005Z,11.73
2022-10-11T23:32:57.047Z,12.85
2022-10-11T23:35:24.284Z,12.43
2022-10-11T23:37:54.664Z,12.63
2022-10-11T23:40:22.091Z,12.63
2022-10-11T23:42:49.106Z,12.80
2022-10-11T23:45:16.287Z,12.65
2022-10-11T23:47:43.314Z,13.35
2022-10-11T23:50:10.831Z,12.10
2022-10-11T23:52:37.938Z,12.02
2022-10-11T23:55:05.354Z,13.13
2022-10-11T23:57:32.551Z,13.05
